16. August 2022

Uhrzeit Code Wetter Temp. Sichtweite Wolkendecke Wind METAR/SPECI
13:55
V
26 °C 10 km+ - 280° 280° 9 kt METAR EHAM 161155Z 28009KT 240V320 9999 FEW026 26/19 Q1008 NOSIG
13:25
V
26 °C 10 km+ - 260° 260° 8 kt METAR EHAM 161125Z 26008KT 200V300 9999 FEW023 26/19 Q1008 NOSIG
12:55
V
25 °C 10 km+ - 220° 220° 7 kt METAR EHAM 161055Z 22007KT 170V300 9999 FEW021 25/18 Q1007 NOSIG
12:25
V
25 °C 10 km+ - 220° 220° 7 kt METAR EHAM 161025Z 22007KT 160V290 9999 FEW016 25/19 Q1007 NOSIG
11:55
V
25 °C 10 km+ - 220° 220° 8 kt METAR EHAM 160955Z 22008KT 170V270 9999 FEW016 25/19 Q1007 NOSIG
11:25
V
24 °C 10 km+ - 230° 230° 7 kt METAR EHAM 160925Z 23007KT 190V270 9999 FEW015 24/19 Q1007 NOSIG
10:55
V
24 °C 10 km+ - 230° 230° 7 kt METAR EHAM 160855Z 23007KT 180V280 9999 FEW012 24/19 Q1007 NOSIG
10:25
V
22 °C 8 km - 230° 230° 6 kt METAR EHAM 160825Z 23006KT 180V280 8000 FEW008 22/19 Q1007 NOSIG
09:55
M
22 °C 7 km - 250° 250° 6 kt METAR EHAM 160755Z 25006KT 200V290 7000 FEW008 22/19 Q1006 BECMG 9000
09:25
M
21 °C 7 km - 250° 250° 7 kt METAR EHAM 160725Z 25007KT 220V310 7000 FEW008 21/19 Q1006 BECMG 9000
08:55
V
20 °C 8 km - 240° 240° 6 kt METAR EHAM 160655Z 24006KT 200V270 8000 NSC 20/18 Q1006 BECMG 9000
08:25
V
20 °C 8 km - 220° 220° 6 kt METAR EHAM 160625Z 22006KT 190V260 8000 NSC 20/17 Q1006 NOSIG
07:55
V
19 °C 8 km - 200° 200° 7 kt METAR EHAM 160555Z 20007KT 8000 NSC 19/17 Q1006 BECMG CAVOK
07:25
M
19 °C 7 km - 190° 190° 7 kt METAR EHAM 160525Z 19007KT 160V220 7000 NSC 19/17 Q1005 BECMG CAVOK
06:55
M
18 °C 7 km - 200° 200° 6 kt METAR EHAM 160455Z 20006KT 170V230 7000 NSC 18/17 Q1005 BECMG CAVOK
06:25
M
18 °C 7 km - 180° 180° 5 kt METAR EHAM 160425Z 18005KT 7000 NSC 18/16 Q1005 BECMG CAVOK
05:55
M
18 °C 7 km - 190° 190° 6 kt METAR EHAM 160355Z 19006KT 7000 NSC 18/17 Q1005 NOSIG
05:25
V
18 °C 9 km - 160° 160° 6 kt METAR EHAM 160325Z 16006KT 9000 NSC 18/17 Q1005 NOSIG
04:55
V
18 °C 10 km+ - 190° 190° 6 kt METAR EHAM 160255Z 19006KT CAVOK 18/16 Q1005 NOSIG
04:25
V
18 °C 10 km+ - 190° 190° 6 kt METAR EHAM 160225Z 19006KT CAVOK 18/17 Q1005 NOSIG
03:55
V
18 °C 10 km+ - 170° 170° 3 kt METAR EHAM 160155Z 17003KT CAVOK 18/16 Q1005 NOSIG
03:25
V
18 °C 10 km+ - 150° 150° 3 kt METAR EHAM 160125Z 15003KT CAVOK 18/16 Q1005 NOSIG
02:55
V
18 °C 10 km+ - 170° 170° 3 kt METAR EHAM 160055Z 17003KT 130V200 CAVOK 18/16 Q1005 NOSIG
02:25
V
18 °C 10 km+ - Var Var 2 kt METAR EHAM 160025Z VRB02KT CAVOK 18/16 Q1005 NOSIG
01:55
V
18 °C 10 km+ - 190° 190° 5 kt METAR EHAM 152355Z 19005KT CAVOK 18/16 Q1005 NOSIG
01:25
V
18 °C 10 km+ - 190° 190° 3 kt METAR EHAM 152325Z 19003KT CAVOK 18/17 Q1005 NOSIG
00:55
V
19 °C 10 km+ - 160° 160° 3 kt METAR EHAM 152255Z 16003KT CAVOK 19/17 Q1005 NOSIG
00:25
V
19 °C 10 km+ - 130° 130° 7 kt METAR EHAM 152225Z 13007KT CAVOK 19/17 Q1005 NOSIG

15. August 2022

Uhrzeit Code Wetter Temp. Sichtweite Wolkendecke Wind METAR/SPECI
23:55
V
19 °C 10 km+ - 140° 140° 5 kt METAR EHAM 152155Z 14005KT CAVOK 19/17 Q1005 NOSIG
23:25
V
19 °C 10 km+ - 140° 140° 4 kt METAR EHAM 152125Z 14004KT CAVOK 19/18 Q1005 NOSIG
22:55
V
19 °C 10 km+ - 140° 140° 5 kt METAR EHAM 152055Z 14005KT CAVOK 19/18 Q1005 NOSIG
22:25
V
19 °C 10 km+ - Var Var 1 kt METAR EHAM 152025Z VRB01KT CAVOK 19/18 Q1005 NOSIG
21:55
V
19 °C 10 km+ - 060° 060° 2 kt METAR EHAM 151955Z 06002KT CAVOK 19/18 Q1005 NOSIG
21:25
V
19 °C 10 km+ - Var Var 2 kt METAR EHAM 151925Z VRB02KT 9999 FEW032 19/18 Q1005 NOSIG
20:55
V
20 °C 10 km+ - 300° 300° 3 kt METAR EHAM 151855Z 30003KT 270V340 9999 -SHRA FEW035CB 20/18 Q1005 RETSRA NOSIG
20:25
V
20 °C 10 km+ - 190° 190° 3 kt METAR EHAM 151825Z 19003KT 160V220 9999 -TSRA FEW025 FEW035CB 20/16 Q1004 TEMPO VRB12KT 5000 TSRA BECMG NSW
19:55
V
20 °C 9 km - 190° 190° 11 kt METAR EHAM 151755Z 19011KT 9000 -TSRA FEW025 SCT035CB 20/17 Q1004 TEMPO VRB12KT 5000 TSRA BECMG NSW
19:25
V
24 °C 10 km+ - 080° 080° 3 kt METAR EHAM 151725Z 08003KT 050V110 9999 TSRA SCT035CB 24/18 Q1003 TEMPO VRB12KT 3000 +TSRA
18:55
V
25 °C 10 km+ - Var Var 2 kt METAR EHAM 151655Z VRB02KT 9999 FEW035CB 25/17 Q1003 TEMPO 7000 TSRA
18:25
V
25 °C 10 km+ - 250° 250° 4 kt METAR EHAM 151625Z 25004KT 190V330 9999 FEW040CB 25/17 Q1003 NOSIG
17:55
V
26 °C 10 km+ - 270° 270° 5 kt METAR EHAM 151555Z 27005KT 230V340 9999 VCSH FEW040CB 26/18 Q1003 NOSIG
17:25
V
25 °C 10 km+ - 280° 280° 7 kt METAR EHAM 151525Z 28007KT 240V300 9999 FEW030 25/17 Q1004 NOSIG
16:55
V
24 °C 10 km+ - 290° 290° 6 kt METAR EHAM 151455Z 29006KT 240V320 9999 FEW030 24/18 Q1004 NOSIG
16:25
V
25 °C 10 km+ - 260° 260° 6 kt METAR EHAM 151425Z 26006KT 200V310 9999 FEW032 25/17 Q1004 NOSIG
15:55
V
25 °C 10 km+ - 260° 260° 8 kt METAR EHAM 151355Z 26008KT 190V330 9999 FEW032 25/17 Q1004 NOSIG
15:25
V
25 °C 10 km+ - 260° 260° 7 kt METAR EHAM 151325Z 26007KT 220V300 9999 FEW032 25/17 Q1004 NOSIG
14:55
V
24 °C 10 km+ - 260° 260° 9 kt METAR EHAM 151255Z 26009KT 220V290 9999 FEW032 24/16 Q1004 NOSIG
14:25
V
25 °C 10 km+ - 220° 220° 9 kt METAR EHAM 151225Z 22009KT 190V270 CAVOK 25/17 Q1004 NOSIG
13:55
V
24 °C 10 km+ - 210° 210° 8 kt METAR EHAM 151155Z 21008KT 180V250 CAVOK 24/17 Q1004 NOSIG
13:25
V
25 °C 10 km+ - 230° 230° 9 kt METAR EHAM 151125Z 23009KT 180V260 CAVOK 25/17 Q1003 TEMPO FM1200 7000 -SHRA SCT050CB
12:55
V
24 °C 10 km+ - 200° 200° 10 kt METAR EHAM 151055Z 20010KT 170V230 CAVOK 24/17 Q1003 TEMPO FM1400 7000 -SHRA SCT050CB
12:25
V
25 °C 10 km+ - 210° 210° 11 kt METAR EHAM 151025Z 21011KT 180V240 CAVOK 25/15 Q1003 TEMPO FM1400 7000 -SHRA SCT050CB
11:55
V
26 °C 10 km+ - 190° 190° 11 kt METAR EHAM 150955Z 19011KT 160V220 CAVOK 26/16 Q1003 NOSIG
11:25
V
26 °C 10 km+ - 200° 200° 10 kt METAR EHAM 150925Z 20010KT 160V230 CAVOK 26/15 Q1003 NOSIG
10:55
V
25 °C 10 km+ - 210° 210° 8 kt METAR EHAM 150855Z 21008KT 180V250 CAVOK 25/14 Q1003 NOSIG
10:25
V
25 °C 10 km+ - 220° 220° 8 kt METAR EHAM 150825Z 22008KT 190V260 CAVOK 25/15 Q1002 NOSIG
09:55
V
25 °C 10 km+ - 220° 220° 8 kt METAR EHAM 150755Z 22008KT 180V270 9999 FEW080TCU 25/15 Q1003 NOSIG
09:25
V
24 °C 10 km+ - 240° 240° 5 kt METAR EHAM 150725Z 24005KT 190V300 CAVOK 24/16 Q1003 NOSIG
08:55
V
23 °C 10 km+ - 250° 250° 7 kt METAR EHAM 150655Z 25007KT 200V280 CAVOK 23/15 Q1003 NOSIG
08:25
V
21 °C 10 km+ - 210° 210° 3 kt METAR EHAM 150625Z 21003KT 160V270 9999 FEW030 21/17 Q1003 NOSIG
07:55
V
21 °C 10 km+ - 260° 260° 4 kt METAR EHAM 150555Z 26004KT 9999 FEW030 21/16 Q1002 NOSIG
07:25
V
22 °C 10 km+ - 180° 180° 5 kt METAR EHAM 150525Z 18005KT 9999 -SHRA FEW080CB 22/16 Q1003 BECMG NSW
06:55
V
22 °C 10 km+ - 270° 270° 9 kt METAR EHAM 150455Z 27009KT 230V300 9999 -SHRA FEW040 FEW080CB 22/17 Q1002 TEMPO -TSRA
06:25
V
22 °C 10 km+ - 230° 230° 7 kt METAR EHAM 150425Z 23007KT 9999 -SHRA FEW080CB 22/18 Q1002 NOSIG
05:55
V
22 °C 10 km+ - 180° 180° 4 kt METAR EHAM 150355Z 18004KT 150V210 9999 -SHRA FEW080CB 22/18 Q1002 NOSIG
05:25
V
22 °C 10 km+ - Var Var 1 kt METAR EHAM 150325Z VRB01KT 9999 SCT080CB 22/18 Q1002 NOSIG
04:55
V
22 °C 10 km+ - 300° 300° 4 kt METAR EHAM 150255Z 30004KT CAVOK 22/18 Q1002 NOSIG
04:25
V
22 °C 10 km+ - 230° 230° 7 kt METAR EHAM 150225Z 23007KT CAVOK 22/18 Q1002 NOSIG
03:55
V
21 °C 10 km+ - 120° 120° 1 kt METAR EHAM 150155Z 12001KT CAVOK 21/18 Q1002 BECMG 21008KT
03:25
V
21 °C 10 km+ - 330° 330° 2 kt METAR EHAM 150125Z 33002KT CAVOK 21/18 Q1003 BECMG 21008KT
02:55
V
21 °C 10 km+ - 320° 320° 2 kt METAR EHAM 150055Z 32002KT CAVOK 21/18 Q1003 NOSIG
02:25
V
22 °C 10 km+ - 050° 050° 1 kt METAR EHAM 150025Z 05001KT CAVOK 22/19 Q1003 NOSIG
01:55
V
22 °C 10 km+ - 050° 050° 3 kt METAR EHAM 142355Z 05003KT CAVOK 22/19 Q1003 NOSIG
01:25
V
22 °C 10 km+ - 060° 060° 4 kt METAR EHAM 142325Z 06004KT CAVOK 22/19 Q1003 NOSIG
00:55
V
23 °C 10 km+ - 050° 050° 6 kt METAR EHAM 142255Z 05006KT CAVOK 23/18 Q1004 NOSIG
00:25
V
24 °C 10 km+ - 050° 050° 7 kt METAR EHAM 142225Z 05007KT CAVOK 24/18 Q1004 NOSIG

14. August 2022

Uhrzeit Code Wetter Temp. Sichtweite Wolkendecke Wind METAR/SPECI
23:55
V
24 °C 10 km+ - 060° 060° 6 kt METAR EHAM 142155Z 06006KT CAVOK 24/17 Q1004 NOSIG
23:25
V
24 °C 10 km+ - 060° 060° 6 kt METAR EHAM 142125Z 06006KT CAVOK 24/16 Q1004 NOSIG
22:55
V
24 °C 10 km+ - 060° 060° 6 kt METAR EHAM 142055Z 06006KT CAVOK 24/16 Q1004 NOSIG
22:25
V
24 °C 10 km+ - 050° 050° 6 kt METAR EHAM 142025Z 05006KT CAVOK 24/16 Q1004 NOSIG
21:55
V
24 °C 10 km+ - 050° 050° 6 kt METAR EHAM 141955Z 05006KT CAVOK 24/15 Q1004 NOSIG
21:25
V
25 °C 10 km+ - 050° 050° 5 kt METAR EHAM 141925Z 05005KT CAVOK 25/15 Q1004 NOSIG
20:55
V
26 °C 10 km+ - 050° 050° 5 kt METAR EHAM 141855Z 05005KT CAVOK 26/15 Q1004 NOSIG
20:25
V
26 °C 10 km+ - 040° 040° 6 kt METAR EHAM 141825Z 04006KT CAVOK 26/15 Q1005 NOSIG
19:55
V
27 °C 10 km+ - 050° 050° 6 kt METAR EHAM 141755Z 05006KT CAVOK 27/14 Q1005 NOSIG
19:25
V
28 °C 10 km+ - 060° 060° 8 kt METAR EHAM 141725Z 06008KT 030V090 CAVOK 28/13 Q1005 NOSIG
18:55
V
29 °C 10 km+ - 060° 060° 8 kt METAR EHAM 141655Z 06008KT CAVOK 29/15 Q1005 NOSIG
18:25
V
29 °C 10 km+ - 060° 060° 7 kt METAR EHAM 141625Z 06007KT 030V090 CAVOK 29/15 Q1005 NOSIG
17:55
V
29 °C 10 km+ - 060° 060° 8 kt METAR EHAM 141555Z 06008KT CAVOK 29/15 Q1005 NOSIG
17:25
V
30 °C 10 km+ - 070° 070° 5 kt METAR EHAM 141525Z 07005KT 020V130 CAVOK 30/13 Q1005 NOSIG
16:55
V
29 °C 10 km+ - 070° 070° 8 kt METAR EHAM 141455Z 07008KT CAVOK 29/14 Q1006 NOSIG
16:25
V
31 °C 10 km+ - 150° 150° 7 kt METAR EHAM 141425Z 15007KT 090V210 CAVOK 31/11 Q1006 NOSIG
15:55
V
31 °C 10 km+ - 130° 130° 6 kt METAR EHAM 141355Z 13006KT 100V190 CAVOK 31/12 Q1006 NOSIG
15:25
V
31 °C 10 km+ - 120° 120° 6 kt METAR EHAM 141325Z 12006KT 070V160 CAVOK 31/13 Q1006 NOSIG
14:55
V
31 °C 10 km+ - 120° 120° 7 kt METAR EHAM 141255Z 12007KT 070V170 CAVOK 31/12 Q1007 NOSIG
14:25
V
31 °C 10 km+ - 110° 110° 7 kt METAR EHAM 141225Z 11007KT 070V180 CAVOK 31/13 Q1007 NOSIG
13:55
V
30 °C 10 km+ - 080° 080° 6 kt METAR EHAM 141155Z 08006KT 020V160 CAVOK 30/12 Q1007 NOSIG
Ältere Daten

Wir und Dritte verfolgen dein Internetverhalten auf unserer Website mit Cookies. Wenn du fortfährst, gehen wir davon aus, dass du mit unserer Cookie-Richtlinie einverstanden bist. Mehr erfahren